sensor_id;sensor_type;location;lat;lon;timestamp;P1;durP1;ratioP1;P2;durP2;ratioP2
46927;SDS011;32668;51.306;-0.576;2022-07-23T00:00:05;7.15;;;2.65;;
46927;SDS011;32668;51.306;-0.576;2022-07-23T00:02:31;13.68;;;2.67;;
46927;SDS011;32668;51.306;-0.576;2022-07-23T00:04:57;6.43;;;2.40;;
46927;SDS011;32668;51.306;-0.576;2022-07-23T00:07:22;8.10;;;2.53;;
46927;SDS011;32668;51.306;-0.576;2022-07-23T00:09:47;6.47;;;2.42;;
46927;SDS011;32668;51.306;-0.576;2022-07-23T00:12:13;7.43;;;2.30;;
46927;SDS011;32668;51.306;-0.576;2022-07-23T00:14:38;6.10;;;2.20;;
46927;SDS011;32668;51.306;-0.576;2022-07-23T00:17:03;8.60;;;2.83;;
46927;SDS011;32668;51.306;-0.576;2022-07-23T00:19:29;4.13;;;2.22;;
46927;SDS011;32668;51.306;-0.576;2022-07-23T00:21:55;6.50;;;2.33;;
46927;SDS011;32668;51.306;-0.576;2022-07-23T00:24:20;10.65;;;2.85;;
46927;SDS011;32668;51.306;-0.576;2022-07-23T00:26:46;6.72;;;2.13;;
46927;SDS011;32668;51.306;-0.576;2022-07-23T00:29:11;6.03;;;2.50;;
46927;SDS011;32668;51.306;-0.576;2022-07-23T00:31:37;7.93;;;2.35;;
46927;SDS011;32668;51.306;-0.576;2022-07-23T00:34:02;8.07;;;2.30;;
46927;SDS011;32668;51.306;-0.576;2022-07-23T00:36:27;8.52;;;2.63;;
46927;SDS011;32668;51.306;-0.576;2022-07-23T00:38:53;7.72;;;2.58;;
46927;SDS011;32668;51.306;-0.576;2022-07-23T00:41:19;6.30;;;2.05;;
46927;SDS011;32668;51.306;-0.576;2022-07-23T00:43:45;5.40;;;2.35;;
46927;SDS011;32668;51.306;-0.576;2022-07-23T00:46:10;7.53;;;2.30;;
46927;SDS011;32668;51.306;-0.576;2022-07-23T00:48:36;7.43;;;2.53;;
46927;SDS011;32668;51.306;-0.576;2022-07-23T00:51:01;6.68;;;2.70;;
46927;SDS011;32668;51.306;-0.576;2022-07-23T00:53:27;7.13;;;2.53;;
46927;SDS011;32668;51.306;-0.576;2022-07-23T00:55:53;5.30;;;2.50;;
46927;SDS011;32668;51.306;-0.576;2022-07-23T00:58:19;7.15;;;2.42;;
46927;SDS011;32668;51.306;-0.576;2022-07-23T01:00:45;7.65;;;2.65;;
46927;SDS011;32668;51.306;-0.576;2022-07-23T01:03:11;5.60;;;2.30;;
46927;SDS011;32668;51.306;-0.576;2022-07-23T01:05:36;9.00;;;2.80;;
46927;SDS011;32668;51.306;-0.576;2022-07-23T01:08:03;9.45;;;2.30;;
46927;SDS011;32668;51.306;-0.576;2022-07-23T01:10:30;10.18;;;2.97;;
46927;SDS011;32668;51.306;-0.576;2022-07-23T01:12:55;8.75;;;3.00;;
46927;SDS011;32668;51.306;-0.576;2022-07-23T01:15:21;9.02;;;2.88;;
46927;SDS011;32668;51.306;-0.576;2022-07-23T01:17:47;4.20;;;2.55;;
46927;SDS011;32668;51.306;-0.576;2022-07-23T01:20:13;10.18;;;2.83;;
46927;SDS011;32668;51.306;-0.576;2022-07-23T01:22:38;8.77;;;3.03;;
46927;SDS011;32668;51.306;-0.576;2022-07-23T01:25:04;6.75;;;2.78;;
46927;SDS011;32668;51.306;-0.576;2022-07-23T01:27:30;8.30;;;3.47;;
46927;SDS011;32668;51.306;-0.576;2022-07-23T01:29:55;8.50;;;2.90;;
46927;SDS011;32668;51.306;-0.576;2022-07-23T01:32:22;11.23;;;3.00;;
46927;SDS011;32668;51.306;-0.576;2022-07-23T01:34:47;8.93;;;3.38;;
46927;SDS011;32668;51.306;-0.576;2022-07-23T01:37:13;7.45;;;3.03;;
46927;SDS011;32668;51.306;-0.576;2022-07-23T01:39:38;6.95;;;2.85;;
46927;SDS011;32668;51.306;-0.576;2022-07-23T01:42:04;8.10;;;2.70;;
46927;SDS011;32668;51.306;-0.576;2022-07-23T01:44:30;7.70;;;2.80;;
46927;SDS011;32668;51.306;-0.576;2022-07-23T01:46:55;8.10;;;3.00;;
46927;SDS011;32668;51.306;-0.576;2022-07-23T01:49:21;9.35;;;3.20;;
46927;SDS011;32668;51.306;-0.576;2022-07-23T01:51:46;7.38;;;3.60;;
46927;SDS011;32668;51.306;-0.576;2022-07-23T01:56:53;11.40;;;3.53;;
46927;SDS011;32668;51.306;-0.576;2022-07-23T01:59:19;7.40;;;3.38;;
46927;SDS011;32668;51.306;-0.576;2022-07-23T02:01:44;10.30;;;3.75;;
46927;SDS011;32668;51.306;-0.576;2022-07-23T02:04:10;9.27;;;3.63;;
46927;SDS011;32668;51.306;-0.576;2022-07-23T02:06:35;8.90;;;3.78;;
46927;SDS011;32668;51.306;-0.576;2022-07-23T02:09:01;8.18;;;3.42;;
46927;SDS011;32668;51.306;-0.576;2022-07-23T02:11:26;10.77;;;3.13;;
46927;SDS011;32668;51.306;-0.576;2022-07-23T02:13:51;9.30;;;3.90;;
46927;SDS011;32668;51.306;-0.576;2022-07-23T02:16:17;12.10;;;3.00;;
46927;SDS011;32668;51.306;-0.576;2022-07-23T02:18:42;7.78;;;3.13;;
46927;SDS011;32668;51.306;-0.576;2022-07-23T02:21:08;4.53;;;2.55;;
46927;SDS011;32668;51.306;-0.576;2022-07-23T02:23:33;8.18;;;2.90;;
46927;SDS011;32668;51.306;-0.576;2022-07-23T02:25:58;10.35;;;2.90;;
46927;SDS011;32668;51.306;-0.576;2022-07-23T02:28:24;10.80;;;3.08;;
46927;SDS011;32668;51.306;-0.576;2022-07-23T02:30:50;6.43;;;2.95;;
46927;SDS011;32668;51.306;-0.576;2022-07-23T02:33:15;6.68;;;3.10;;
46927;SDS011;32668;51.306;-0.576;2022-07-23T02:35:40;7.68;;;2.90;;
46927;SDS011;32668;51.306;-0.576;2022-07-23T02:38:06;6.95;;;2.92;;
46927;SDS011;32668;51.306;-0.576;2022-07-23T02:40:31;8.02;;;2.63;;
46927;SDS011;32668;51.306;-0.576;2022-07-23T02:42:57;7.15;;;3.05;;
46927;SDS011;32668;51.306;-0.576;2022-07-23T02:45:22;11.63;;;3.25;;
46927;SDS011;32668;51.306;-0.576;2022-07-23T02:47:48;9.77;;;3.58;;
46927;SDS011;32668;51.306;-0.576;2022-07-23T02:50:13;6.68;;;3.00;;
46927;SDS011;32668;51.306;-0.576;2022-07-23T02:52:38;11.15;;;2.97;;
46927;SDS011;32668;51.306;-0.576;2022-07-23T02:55:04;8.10;;;3.45;;
46927;SDS011;32668;51.306;-0.576;2022-07-23T02:57:30;8.15;;;3.28;;
46927;SDS011;32668;51.306;-0.576;2022-07-23T02:59:56;10.70;;;3.35;;
46927;SDS011;32668;51.306;-0.576;2022-07-23T03:02:21;6.43;;;2.97;;
46927;SDS011;32668;51.306;-0.576;2022-07-23T03:04:47;7.85;;;3.05;;
46927;SDS011;32668;51.306;-0.576;2022-07-23T03:07:12;12.30;;;3.22;;
46927;SDS011;32668;51.306;-0.576;2022-07-23T03:09:37;9.98;;;3.55;;
46927;SDS011;32668;51.306;-0.576;2022-07-23T03:12:03;12.43;;;3.42;;
46927;SDS011;32668;51.306;-0.576;2022-07-23T03:14:28;6.00;;;3.10;;
46927;SDS011;32668;51.306;-0.576;2022-07-23T03:16:54;14.93;;;3.47;;
46927;SDS011;32668;51.306;-0.576;2022-07-23T03:19:19;5.88;;;3.17;;
46927;SDS011;32668;51.306;-0.576;2022-07-23T03:21:45;6.20;;;2.97;;
46927;SDS011;32668;51.306;-0.576;2022-07-23T03:24:10;12.43;;;3.42;;
46927;SDS011;32668;51.306;-0.576;2022-07-23T03:26:36;7.20;;;2.97;;
46927;SDS011;32668;51.306;-0.576;2022-07-23T03:29:02;11.32;;;3.70;;
46927;SDS011;32668;51.306;-0.576;2022-07-23T03:31:29;7.30;;;3.10;;
46927;SDS011;32668;51.306;-0.576;2022-07-23T03:33:56;13.75;;;3.42;;
46927;SDS011;32668;51.306;-0.576;2022-07-23T03:36:21;6.93;;;3.70;;
46927;SDS011;32668;51.306;-0.576;2022-07-23T03:38:46;6.43;;;3.22;;
46927;SDS011;32668;51.306;-0.576;2022-07-23T03:41:12;9.23;;;3.33;;
46927;SDS011;32668;51.306;-0.576;2022-07-23T03:43:37;9.05;;;3.78;;
46927;SDS011;32668;51.306;-0.576;2022-07-23T03:46:03;11.73;;;3.88;;
46927;SDS011;32668;51.306;-0.576;2022-07-23T03:48:28;8.85;;;3.38;;
46927;SDS011;32668;51.306;-0.576;2022-07-23T03:50:53;12.27;;;4.82;;
46927;SDS011;32668;51.306;-0.576;2022-07-23T03:53:19;8.02;;;4.40;;
46927;SDS011;32668;51.306;-0.576;2022-07-23T03:55:44;10.45;;;4.38;;
46927;SDS011;32668;51.306;-0.576;2022-07-23T03:58:09;11.73;;;4.20;;
46927;SDS011;32668;51.306;-0.576;2022-07-23T04:00:35;9.43;;;4.40;;
46927;SDS011;32668;51.306;-0.576;2022-07-23T04:03:00;9.02;;;3.80;;
46927;SDS011;32668;51.306;-0.576;2022-07-23T04:05:26;9.55;;;3.50;;
46927;SDS011;32668;51.306;-0.576;2022-07-23T04:07:51;7.75;;;3.88;;
46927;SDS011;32668;51.306;-0.576;2022-07-23T04:10:16;8.02;;;3.58;;
46927;SDS011;32668;51.306;-0.576;2022-07-23T04:12:42;8.45;;;4.50;;
46927;SDS011;32668;51.306;-0.576;2022-07-23T04:15:08;8.23;;;4.15;;
46927;SDS011;32668;51.306;-0.576;2022-07-23T04:17:33;11.50;;;4.97;;
46927;SDS011;32668;51.306;-0.576;2022-07-23T04:19:59;12.65;;;4.72;;
46927;SDS011;32668;51.306;-0.576;2022-07-23T04:22:24;8.07;;;4.57;;
46927;SDS011;32668;51.306;-0.576;2022-07-23T04:24:50;8.48;;;4.85;;
46927;SDS011;32668;51.306;-0.576;2022-07-23T04:27:15;13.82;;;5.65;;
46927;SDS011;32668;51.306;-0.576;2022-07-23T04:29:41;13.27;;;4.65;;
46927;SDS011;32668;51.306;-0.576;2022-07-23T04:32:06;11.40;;;5.50;;
46927;SDS011;32668;51.306;-0.576;2022-07-23T04:34:32;11.43;;;4.53;;
46927;SDS011;32668;51.306;-0.576;2022-07-23T04:36:57;10.13;;;4.30;;
46927;SDS011;32668;51.306;-0.576;2022-07-23T04:39:23;13.80;;;5.10;;
46927;SDS011;32668;51.306;-0.576;2022-07-23T04:41:48;15.07;;;5.00;;
46927;SDS011;32668;51.306;-0.576;2022-07-23T04:44:14;11.23;;;5.57;;
46927;SDS011;32668;51.306;-0.576;2022-07-23T04:46:39;8.18;;;5.20;;
46927;SDS011;32668;51.306;-0.576;2022-07-23T04:49:04;12.05;;;6.15;;
46927;SDS011;32668;51.306;-0.576;2022-07-23T04:51:30;16.25;;;5.85;;
46927;SDS011;32668;51.306;-0.576;2022-07-23T04:53:56;12.50;;;5.57;;
46927;SDS011;32668;51.306;-0.576;2022-07-23T04:56:21;11.43;;;6.05;;
46927;SDS011;32668;51.306;-0.576;2022-07-23T04:58:47;11.18;;;5.30;;
46927;SDS011;32668;51.306;-0.576;2022-07-23T05:01:13;11.32;;;5.72;;
46927;SDS011;32668;51.306;-0.576;2022-07-23T05:03:38;13.70;;;5.68;;
46927;SDS011;32668;51.306;-0.576;2022-07-23T05:06:04;10.38;;;5.53;;
46927;SDS011;32668;51.306;-0.576;2022-07-23T05:08:29;12.15;;;5.80;;
46927;SDS011;32668;51.306;-0.576;2022-07-23T05:10:55;9.77;;;5.53;;
46927;SDS011;32668;51.306;-0.576;2022-07-23T05:13:20;11.32;;;5.93;;
46927;SDS011;32668;51.306;-0.576;2022-07-23T05:15:46;14.98;;;5.47;;
46927;SDS011;32668;51.306;-0.576;2022-07-23T05:18:12;13.07;;;4.85;;
46927;SDS011;32668;51.306;-0.576;2022-07-23T05:20:37;11.68;;;5.72;;
46927;SDS011;32668;51.306;-0.576;2022-07-23T05:23:03;10.32;;;5.32;;
46927;SDS011;32668;51.306;-0.576;2022-07-23T05:25:28;15.50;;;5.18;;
46927;SDS011;32668;51.306;-0.576;2022-07-23T05:27:54;14.35;;;5.15;;
46927;SDS011;32668;51.306;-0.576;2022-07-23T05:30:19;12.75;;;5.40;;
46927;SDS011;32668;51.306;-0.576;2022-07-23T05:32:45;11.10;;;5.22;;
46927;SDS011;32668;51.306;-0.576;2022-07-23T05:35:10;12.90;;;4.93;;
46927;SDS011;32668;51.306;-0.576;2022-07-23T05:37:37;14.57;;;5.05;;
46927;SDS011;32668;51.306;-0.576;2022-07-23T05:40:03;12.82;;;5.10;;
46927;SDS011;32668;51.306;-0.576;2022-07-23T05:42:32;9.68;;;5.40;;
46927;SDS011;32668;51.306;-0.576;2022-07-23T05:45:07;10.43;;;5.40;;
46927;SDS011;32668;51.306;-0.576;2022-07-23T05:47:40;11.57;;;4.57;;
46927;SDS011;32668;51.306;-0.576;2022-07-23T05:50:07;10.77;;;4.63;;
46927;SDS011;32668;51.306;-0.576;2022-07-23T05:52:33;18.63;;;4.78;;
46927;SDS011;32668;51.306;-0.576;2022-07-23T05:54:59;11.00;;;5.03;;
46927;SDS011;32668;51.306;-0.576;2022-07-23T05:57:24;10.88;;;4.22;;
46927;SDS011;32668;51.306;-0.576;2022-07-23T05:59:49;10.20;;;4.20;;
46927;SDS011;32668;51.306;-0.576;2022-07-23T06:02:15;16.52;;;4.35;;
46927;SDS011;32668;51.306;-0.576;2022-07-23T06:04:40;13.35;;;4.38;;
46927;SDS011;32668;51.306;-0.576;2022-07-23T06:07:05;16.40;;;4.80;;
46927;SDS011;32668;51.306;-0.576;2022-07-23T06:09:31;16.20;;;5.20;;
46927;SDS011;32668;51.306;-0.576;2022-07-23T06:11:56;14.13;;;4.55;;
46927;SDS011;32668;51.306;-0.576;2022-07-23T06:14:21;15.30;;;4.35;;
46927;SDS011;32668;51.306;-0.576;2022-07-23T06:16:47;15.57;;;3.97;;
46927;SDS011;32668;51.306;-0.576;2022-07-23T06:19:12;10.13;;;3.80;;
46927;SDS011;32668;51.306;-0.576;2022-07-23T06:21:38;12.20;;;4.00;;
46927;SDS011;32668;51.306;-0.576;2022-07-23T06:24:03;16.58;;;4.05;;
46927;SDS011;32668;51.306;-0.576;2022-07-23T06:26:29;5.07;;;2.75;;
46927;SDS011;32668;51.306;-0.576;2022-07-23T06:28:54;11.85;;;3.38;;
46927;SDS011;32668;51.306;-0.576;2022-07-23T06:31:20;11.30;;;3.47;;
46927;SDS011;32668;51.306;-0.576;2022-07-23T06:33:45;13.20;;;3.75;;
46927;SDS011;32668;51.306;-0.576;2022-07-23T06:36:10;8.40;;;3.15;;
46927;SDS011;32668;51.306;-0.576;2022-07-23T06:38:36;10.25;;;3.05;;
46927;SDS011;32668;51.306;-0.576;2022-07-23T06:41:01;8.88;;;3.88;;
46927;SDS011;32668;51.306;-0.576;2022-07-23T06:43:27;11.52;;;3.40;;
46927;SDS011;32668;51.306;-0.576;2022-07-23T06:45:52;7.30;;;3.30;;
46927;SDS011;32668;51.306;-0.576;2022-07-23T06:48:17;11.23;;;3.08;;
46927;SDS011;32668;51.306;-0.576;2022-07-23T06:50:43;7.50;;;3.05;;
46927;SDS011;32668;51.306;-0.576;2022-07-23T06:53:08;11.48;;;3.33;;
46927;SDS011;32668;51.306;-0.576;2022-07-23T06:55:34;5.68;;;3.03;;
46927;SDS011;32668;51.306;-0.576;2022-07-23T06:58:03;7.97;;;3.42;;
46927;SDS011;32668;51.306;-0.576;2022-07-23T07:00:28;12.55;;;3.55;;
46927;SDS011;32668;51.306;-0.576;2022-07-23T07:02:56;10.45;;;3.50;;
46927;SDS011;32668;51.306;-0.576;2022-07-23T07:05:21;9.70;;;2.67;;
46927;SDS011;32668;51.306;-0.576;2022-07-23T07:07:48;9.57;;;2.70;;
46927;SDS011;32668;51.306;-0.576;2022-07-23T07:10:13;11.32;;;3.00;;
46927;SDS011;32668;51.306;-0.576;2022-07-23T07:12:41;8.38;;;3.42;;
46927;SDS011;32668;51.306;-0.576;2022-07-23T07:15:07;7.53;;;2.72;;
46927;SDS011;32668;51.306;-0.576;2022-07-23T07:17:32;10.02;;;3.00;;
46927;SDS011;32668;51.306;-0.576;2022-07-23T07:19:58;8.95;;;3.15;;
46927;SDS011;32668;51.306;-0.576;2022-07-23T07:22:23;9.68;;;3.03;;
46927;SDS011;32668;51.306;-0.576;2022-07-23T07:24:48;9.35;;;3.15;;
46927;SDS011;32668;51.306;-0.576;2022-07-23T07:27:14;11.52;;;3.92;;
46927;SDS011;32668;51.306;-0.576;2022-07-23T07:29:39;10.18;;;2.92;;
46927;SDS011;32668;51.306;-0.576;2022-07-23T07:32:04;8.57;;;3.08;;
46927;SDS011;32668;51.306;-0.576;2022-07-23T07:34:30;10.75;;;3.50;;
46927;SDS011;32668;51.306;-0.576;2022-07-23T07:36:55;7.68;;;3.50;;
46927;SDS011;32668;51.306;-0.576;2022-07-23T07:39:21;6.03;;;2.90;;
46927;SDS011;32668;51.306;-0.576;2022-07-23T07:41:46;5.53;;;2.28;;
46927;SDS011;32668;51.306;-0.576;2022-07-23T07:44:11;10.65;;;2.88;;
46927;SDS011;32668;51.306;-0.576;2022-07-23T07:46:37;7.22;;;2.42;;
46927;SDS011;32668;51.306;-0.576;2022-07-23T07:49:02;8.05;;;2.78;;
46927;SDS011;32668;51.306;-0.576;2022-07-23T07:51:28;10.80;;;2.67;;
46927;SDS011;32668;51.306;-0.576;2022-07-23T07:53:53;5.63;;;2.53;;
46927;SDS011;32668;51.306;-0.576;2022-07-23T07:56:19;8.23;;;2.15;;
46927;SDS011;32668;51.306;-0.576;2022-07-23T07:58:44;9.35;;;2.40;;
46927;SDS011;32668;51.306;-0.576;2022-07-23T08:01:10;9.30;;;2.63;;
46927;SDS011;32668;51.306;-0.576;2022-07-23T08:03:35;7.07;;;2.00;;
46927;SDS011;32668;51.306;-0.576;2022-07-23T08:06:00;11.30;;;2.63;;
46927;SDS011;32668;51.306;-0.576;2022-07-23T08:08:26;5.65;;;1.90;;
46927;SDS011;32668;51.306;-0.576;2022-07-23T08:10:51;8.93;;;2.53;;
46927;SDS011;32668;51.306;-0.576;2022-07-23T08:13:17;6.40;;;1.98;;
46927;SDS011;32668;51.306;-0.576;2022-07-23T08:15:42;10.93;;;2.45;;
46927;SDS011;32668;51.306;-0.576;2022-07-23T08:18:08;9.65;;;2.28;;
46927;SDS011;32668;51.306;-0.576;2022-07-23T08:20:34;8.70;;;3.00;;
46927;SDS011;32668;51.306;-0.576;2022-07-23T08:23:04;8.13;;;2.50;;
46927;SDS011;32668;51.306;-0.576;2022-07-23T08:25:38;6.45;;;1.98;;
46927;SDS011;32668;51.306;-0.576;2022-07-23T08:28:07;6.15;;;2.10;;
46927;SDS011;32668;51.306;-0.576;2022-07-23T08:30:35;7.35;;;2.05;;
46927;SDS011;32668;51.306;-0.576;2022-07-23T08:33:08;5.13;;;2.25;;
46927;SDS011;32668;51.306;-0.576;2022-07-23T08:35:42;7.00;;;2.10;;
46927;SDS011;32668;51.306;-0.576;2022-07-23T08:38:11;8.25;;;2.42;;
46927;SDS011;32668;51.306;-0.576;2022-07-23T08:40:37;6.70;;;2.83;;
46927;SDS011;32668;51.306;-0.576;2022-07-23T08:45:41;7.63;;;2.25;;
46927;SDS011;32668;51.306;-0.576;2022-07-23T08:48:13;7.95;;;2.63;;
46927;SDS011;32668;51.306;-0.576;2022-07-23T08:50:45;5.13;;;2.30;;
46927;SDS011;32668;51.306;-0.576;2022-07-23T08:53:12;5.25;;;2.00;;
46927;SDS011;32668;51.306;-0.576;2022-07-23T08:55:38;9.00;;;2.30;;
46927;SDS011;32668;51.306;-0.576;2022-07-23T08:58:04;5.50;;;2.28;;
46927;SDS011;32668;51.306;-0.576;2022-07-23T09:00:31;4.80;;;1.83;;
46927;SDS011;32668;51.306;-0.576;2022-07-23T09:02:56;8.90;;;1.63;;
46927;SDS011;32668;51.306;-0.576;2022-07-23T09:05:22;4.68;;;1.70;;
46927;SDS011;32668;51.306;-0.576;2022-07-23T09:11:10;3.13;;;1.30;;
46927;SDS011;32668;51.306;-0.576;2022-07-23T09:16:14;5.45;;;1.40;;
46927;SDS011;32668;51.306;-0.576;2022-07-23T09:18:54;6.60;;;1.27;;
46927;SDS011;32668;51.306;-0.576;2022-07-23T09:21:39;8.10;;;1.33;;
46927;SDS011;32668;51.306;-0.576;2022-07-23T09:29:08;6.47;;;1.27;;
46927;SDS011;32668;51.306;-0.576;2022-07-23T09:39:38;9.63;;;2.00;;
46927;SDS011;32668;51.306;-0.576;2022-07-23T09:44:42;2.78;;;1.10;;
46927;SDS011;32668;51.306;-0.576;2022-07-23T09:47:10;3.80;;;1.10;;
46927;SDS011;32668;51.306;-0.576;2022-07-23T09:49:35;7.35;;;1.98;;
46927;SDS011;32668;51.306;-0.576;2022-07-23T09:52:01;4.20;;;1.10;;
46927;SDS011;32668;51.306;-0.576;2022-07-23T09:57:02;5.35;;;1.17;;
46927;SDS011;32668;51.306;-0.576;2022-07-23T09:59:32;3.03;;;1.00;;
46927;SDS011;32668;51.306;-0.576;2022-07-23T10:01:59;4.38;;;1.00;;
46927;SDS011;32668;51.306;-0.576;2022-07-23T10:04:29;2.25;;;1.20;;
46927;SDS011;32668;51.306;-0.576;2022-07-23T10:06:56;4.03;;;1.02;;
46927;SDS011;32668;51.306;-0.576;2022-07-23T10:09:25;4.20;;;1.10;;
46927;SDS011;32668;51.306;-0.576;2022-07-23T10:12:02;5.13;;;1.23;;
46927;SDS011;32668;51.306;-0.576;2022-07-23T10:14:48;2.90;;;1.00;;
46927;SDS011;32668;51.306;-0.576;2022-07-23T10:17:14;7.30;;;1.48;;
46927;SDS011;32668;51.306;-0.576;2022-07-23T10:19:42;3.00;;;1.00;;
46927;SDS011;32668;51.306;-0.576;2022-07-23T10:22:13;3.22;;;1.10;;
46927;SDS011;32668;51.306;-0.576;2022-07-23T10:29:52;2.08;;;1.00;;
46927;SDS011;32668;51.306;-0.576;2022-07-23T10:37:44;2.65;;;1.10;;
46927;SDS011;32668;51.306;-0.576;2022-07-23T10:40:14;2.05;;;1.00;;
46927;SDS011;32668;51.306;-0.576;2022-07-23T10:42:42;2.30;;;1.00;;
46927;SDS011;32668;51.306;-0.576;2022-07-23T10:45:26;3.03;;;0.90;;
46927;SDS011;32668;51.306;-0.576;2022-07-23T10:48:15;3.33;;;1.08;;
46927;SDS011;32668;51.306;-0.576;2022-07-23T10:56:14;5.15;;;1.13;;
46927;SDS011;32668;51.306;-0.576;2022-07-23T10:58:47;3.83;;;1.10;;
46927;SDS011;32668;51.306;-0.576;2022-07-23T11:01:33;5.15;;;1.27;;
46927;SDS011;32668;51.306;-0.576;2022-07-23T11:04:03;7.47;;;1.42;;
46927;SDS011;32668;51.306;-0.576;2022-07-23T11:07:16;2.67;;;0.93;;
46927;SDS011;32668;51.306;-0.576;2022-07-23T11:09:28;6.50;;;1.48;;
46927;SDS011;32668;51.306;-0.576;2022-07-23T11:12:31;2.75;;;1.00;;
46927;SDS011;32668;51.306;-0.576;2022-07-23T11:15:12;2.35;;;1.10;;
46927;SDS011;32668;51.306;-0.576;2022-07-23T11:25:07;2.60;;;0.85;;
46927;SDS011;32668;51.306;-0.576;2022-07-23T11:27:40;1.10;;;0.70;;
46927;SDS011;32668;51.306;-0.576;2022-07-23T11:30:09;3.08;;;0.90;;
46927;SDS011;32668;51.306;-0.576;2022-07-23T11:33:15;3.22;;;0.90;;
46927;SDS011;32668;51.306;-0.576;2022-07-23T11:35:44;2.90;;;0.90;;
46927;SDS011;32668;51.306;-0.576;2022-07-23T11:38:21;2.40;;;0.77;;
46927;SDS011;32668;51.306;-0.576;2022-07-23T11:40:51;2.13;;;0.50;;
46927;SDS011;32668;51.306;-0.576;2022-07-23T11:43:22;2.75;;;0.65;;
46927;SDS011;32668;51.306;-0.576;2022-07-23T11:45:50;1.52;;;0.75;;
46927;SDS011;32668;51.306;-0.576;2022-07-23T11:48:23;3.97;;;0.65;;
46927;SDS011;32668;51.306;-0.576;2022-07-23T11:50:50;2.42;;;0.70;;
46927;SDS011;32668;51.306;-0.576;2022-07-23T11:55:51;1.92;;;0.73;;
46927;SDS011;32668;51.306;-0.576;2022-07-23T11:58:18;1.70;;;0.70;;
46927;SDS011;32668;51.306;-0.576;2022-07-23T12:00:43;1.70;;;0.70;;
46927;SDS011;32668;51.306;-0.576;2022-07-23T12:03:09;1.85;;;0.80;;
46927;SDS011;32668;51.306;-0.576;2022-07-23T12:05:35;2.17;;;1.00;;
46927;SDS011;32668;51.306;-0.576;2022-07-23T12:08:02;1.80;;;0.88;;
46927;SDS011;32668;51.306;-0.576;2022-07-23T12:10:34;2.35;;;0.77;;
46927;SDS011;32668;51.306;-0.576;2022-07-23T12:13:09;2.53;;;0.90;;
46927;SDS011;32668;51.306;-0.576;2022-07-23T12:15:39;3.33;;;1.33;;
46927;SDS011;32668;51.306;-0.576;2022-07-23T12:18:11;2.63;;;0.73;;
46927;SDS011;32668;51.306;-0.576;2022-07-23T12:20:39;1.67;;;0.80;;
46927;SDS011;32668;51.306;-0.576;2022-07-23T12:23:09;1.95;;;0.93;;
46927;SDS011;32668;51.306;-0.576;2022-07-23T12:25:38;2.03;;;0.80;;
46927;SDS011;32668;51.306;-0.576;2022-07-23T12:30:37;4.32;;;0.90;;
46927;SDS011;32668;51.306;-0.576;2022-07-23T12:33:04;2.63;;;1.10;;
46927;SDS011;32668;51.306;-0.576;2022-07-23T12:35:53;1.35;;;0.70;;
46927;SDS011;32668;51.306;-0.576;2022-07-23T12:38:20;0.98;;;0.55;;
46927;SDS011;32668;51.306;-0.576;2022-07-23T12:43:23;1.52;;;0.90;;
46927;SDS011;32668;51.306;-0.576;2022-07-23T12:46:03;5.28;;;0.95;;
46927;SDS011;32668;51.306;-0.576;2022-07-23T12:48:30;2.60;;;0.93;;
46927;SDS011;32668;51.306;-0.576;2022-07-23T12:51:03;4.25;;;1.25;;
46927;SDS011;32668;51.306;-0.576;2022-07-23T12:53:30;2.38;;;1.00;;
46927;SDS011;32668;51.306;-0.576;2022-07-23T12:56:07;3.05;;;0.90;;
46927;SDS011;32668;51.306;-0.576;2022-07-23T13:01:05;3.28;;;1.42;;
46927;SDS011;32668;51.306;-0.576;2022-07-23T13:06:58;2.00;;;0.88;;
46927;SDS011;32668;51.306;-0.576;2022-07-23T13:09:29;2.28;;;1.17;;
46927;SDS011;32668;51.306;-0.576;2022-07-23T13:11:56;4.82;;;1.58;;
46927;SDS011;32668;51.306;-0.576;2022-07-23T13:14:23;6.72;;;1.80;;
46927;SDS011;32668;51.306;-0.576;2022-07-23T13:16:50;2.85;;;1.23;;
46927;SDS011;32668;51.306;-0.576;2022-07-23T13:19:17;1.98;;;1.10;;
46927;SDS011;32668;51.306;-0.576;2022-07-23T13:21:43;2.13;;;1.00;;
46927;SDS011;32668;51.306;-0.576;2022-07-23T13:24:09;2.22;;;1.55;;
46927;SDS011;32668;51.306;-0.576;2022-07-23T13:26:35;3.10;;;1.27;;
46927;SDS011;32668;51.306;-0.576;2022-07-23T13:29:02;2.40;;;1.23;;
46927;SDS011;32668;51.306;-0.576;2022-07-23T13:31:28;2.67;;;1.27;;
46927;SDS011;32668;51.306;-0.576;2022-07-23T13:33:53;2.95;;;1.48;;
46927;SDS011;32668;51.306;-0.576;2022-07-23T13:36:18;1.88;;;1.10;;
46927;SDS011;32668;51.306;-0.576;2022-07-23T13:38:44;4.95;;;1.60;;
46927;SDS011;32668;51.306;-0.576;2022-07-23T13:41:09;1.73;;;1.10;;
46927;SDS011;32668;51.306;-0.576;2022-07-23T13:43:35;2.38;;;1.20;;
46927;SDS011;32668;51.306;-0.576;2022-07-23T13:46:00;3.35;;;1.40;;
46927;SDS011;32668;51.306;-0.576;2022-07-23T13:48:26;3.38;;;1.33;;
46927;SDS011;32668;51.306;-0.576;2022-07-23T13:50:51;12.20;;;2.55;;
46927;SDS011;32668;51.306;-0.576;2022-07-23T13:53:21;5.30;;;1.65;;
46927;SDS011;32668;51.306;-0.576;2022-07-23T13:55:48;1.83;;;1.20;;
46927;SDS011;32668;51.306;-0.576;2022-07-23T13:58:16;5.03;;;1.40;;
46927;SDS011;32668;51.306;-0.576;2022-07-23T14:00:44;3.58;;;1.35;;
46927;SDS011;32668;51.306;-0.576;2022-07-23T14:03:12;3.35;;;1.38;;
46927;SDS011;32668;51.306;-0.576;2022-07-23T14:05:37;3.38;;;1.20;;
46927;SDS011;32668;51.306;-0.576;2022-07-23T14:08:04;2.92;;;1.20;;
46927;SDS011;32668;51.306;-0.576;2022-07-23T14:10:30;2.50;;;0.98;;
46927;SDS011;32668;51.306;-0.576;2022-07-23T14:12:55;2.70;;;1.30;;
46927;SDS011;32668;51.306;-0.576;2022-07-23T14:15:23;4.88;;;1.33;;
46927;SDS011;32668;51.306;-0.576;2022-07-23T14:17:49;2.30;;;1.15;;
46927;SDS011;32668;51.306;-0.576;2022-07-23T14:20:15;3.22;;;1.00;;
46927;SDS011;32668;51.306;-0.576;2022-07-23T14:22:41;1.38;;;1.13;;
46927;SDS011;32668;51.306;-0.576;2022-07-23T14:25:07;2.13;;;1.00;;
46927;SDS011;32668;51.306;-0.576;2022-07-23T14:27:33;2.47;;;1.02;;
46927;SDS011;32668;51.306;-0.576;2022-07-23T14:29:59;3.50;;;1.48;;
46927;SDS011;32668;51.306;-0.576;2022-07-23T14:32:25;5.85;;;1.67;;
46927;SDS011;32668;51.306;-0.576;2022-07-23T14:34:51;7.53;;;1.10;;
46927;SDS011;32668;51.306;-0.576;2022-07-23T14:37:17;8.18;;;1.75;;
46927;SDS011;32668;51.306;-0.576;2022-07-23T14:39:43;4.70;;;1.10;;
46927;SDS011;32668;51.306;-0.576;2022-07-23T14:42:09;3.25;;;1.00;;
46927;SDS011;32668;51.306;-0.576;2022-07-23T14:44:35;3.55;;;1.52;;
46927;SDS011;32668;51.306;-0.576;2022-07-23T14:47:02;2.08;;;1.10;;
46927;SDS011;32668;51.306;-0.576;2022-07-23T14:49:29;3.65;;;1.00;;
46927;SDS011;32668;51.306;-0.576;2022-07-23T14:51:56;4.72;;;1.05;;
46927;SDS011;32668;51.306;-0.576;2022-07-23T14:54:21;9.52;;;1.80;;
46927;SDS011;32668;51.306;-0.576;2022-07-23T14:56:47;4.22;;;1.30;;
46927;SDS011;32668;51.306;-0.576;2022-07-23T14:59:12;1.85;;;1.10;;
46927;SDS011;32668;51.306;-0.576;2022-07-23T15:01:38;6.38;;;1.20;;
46927;SDS011;32668;51.306;-0.576;2022-07-23T15:04:04;3.15;;;1.10;;
46927;SDS011;32668;51.306;-0.576;2022-07-23T15:06:31;2.83;;;1.20;;
46927;SDS011;32668;51.306;-0.576;2022-07-23T15:08:57;1.50;;;1.20;;
46927;SDS011;32668;51.306;-0.576;2022-07-23T15:11:22;2.88;;;1.80;;
46927;SDS011;32668;51.306;-0.576;2022-07-23T15:13:48;1.10;;;1.00;;
46927;SDS011;32668;51.306;-0.576;2022-07-23T15:16:14;2.25;;;0.90;;
46927;SDS011;32668;51.306;-0.576;2022-07-23T15:18:40;2.05;;;1.33;;
46927;SDS011;32668;51.306;-0.576;2022-07-23T15:21:05;0.93;;;0.82;;
46927;SDS011;32668;51.306;-0.576;2022-07-23T15:23:31;5.30;;;1.27;;
46927;SDS011;32668;51.306;-0.576;2022-07-23T15:25:56;2.25;;;1.23;;
46927;SDS011;32668;51.306;-0.576;2022-07-23T15:28:22;5.20;;;1.23;;
46927;SDS011;32668;51.306;-0.576;2022-07-23T15:30:49;5.22;;;1.10;;
46927;SDS011;32668;51.306;-0.576;2022-07-23T15:33:16;2.72;;;1.10;;
46927;SDS011;32668;51.306;-0.576;2022-07-23T15:35:41;3.97;;;1.40;;